Time;durP1;ratioP1;P1;durP2;ratioP2;P2;SDS_P1;SDS_P2;PMS_P1;PMS_P2;Temp;Humidity;BMP_temperature;BMP_pressure;BME280_temperature;BME280_humidity;BME280_pressure;Samples;Min_cycle;Max_cycle;Signal;HPM_P1;HPM_P2
2022/11/26 00:02:25;;;;;;;14.85;4.65;;;5.30;99.90;;;;;;5047164;28;20098;-74
2022/11/26 00:04:52;;;;;;;12.48;4.15;;;5.30;99.90;;;;;;5049787;28;20086;-74
2022/11/26 00:07:21;;;;;;;12.57;3.65;;;5.20;99.90;;;;;;5043628;28;20028;-73
2022/11/26 00:09:50;;;;;;;14.48;4.30;;;5.20;99.90;;;;;;5050205;28;20531;-74
2022/11/26 00:12:21;;;;;;;12.82;3.53;;;5.20;99.90;;;;;;5049061;28;20033;-72
2022/11/26 00:14:47;;;;;;;19.80;3.78;;;5.20;99.90;;;;;;5050050;28;20033;-74
2022/11/26 00:17:14;;;;;;;15.55;3.65;;;5.20;99.90;;;;;;5047868;28;20407;-72
2022/11/26 00:19:40;;;;;;;16.75;4.20;;;5.20;99.90;;;;;;5046647;28;20049;-74
2022/11/26 00:22:19;;;;;;;22.75;3.60;;;5.20;99.90;;;;;;5049572;28;20104;-74
2022/11/26 00:24:48;;;;;;;14.75;4.10;;;5.20;99.90;;;;;;5051722;28;20029;-73
2022/11/26 00:27:13;;;;;;;12.30;2.88;;;5.20;99.90;;;;;;5051399;28;20029;-73
2022/11/26 00:29:39;;;;;;;14.07;4.30;;;5.20;99.90;;;;;;5052887;28;20135;-74
2022/11/26 00:32:15;;;;;;;13.57;3.65;;;5.20;99.90;;;;;;5051976;28;20466;-74
2022/11/26 00:34:40;;;;;;;16.92;4.00;;;5.10;99.90;;;;;;5050118;28;20229;-73
2022/11/26 00:37:29;;;;;;;9.05;4.30;;;5.10;99.90;;;;;;5052385;28;20458;-74
2022/11/26 00:39:56;;;;;;;15.27;4.55;;;5.00;99.90;;;;;;5052415;28;20044;-73
2022/11/26 00:42:21;;;;;;;10.93;3.42;;;5.10;99.90;;;;;;5052007;28;20052;-73
2022/11/26 00:44:47;;;;;;;13.32;3.75;;;5.10;99.90;;;;;;5053567;28;20040;-74
2022/11/26 00:47:13;;;;;;;6.43;2.88;;;5.10;99.90;;;;;;5052162;28;20029;-73
2022/11/26 00:49:38;;;;;;;12.68;3.15;;;5.10;99.90;;;;;;5052233;28;20415;-73
2022/11/26 00:52:32;;;;;;;8.68;2.53;;;5.20;99.90;;;;;;5049722;28;20045;-74
2022/11/26 00:54:58;;;;;;;11.25;3.17;;;5.20;99.90;;;;;;5026986;28;20060;-74
2022/11/26 00:57:23;;;;;;;11.63;2.78;;;5.30;99.90;;;;;;5050536;28;20025;-74
2022/11/26 00:59:49;;;;;;;5.97;2.35;;;5.30;99.90;;;;;;5052359;28;20064;-74
2022/11/26 01:02:15;;;;;;;13.48;2.70;;;5.30;99.90;;;;;;5051863;28;20036;-74
2022/11/26 01:04:40;;;;;;;9.35;2.40;;;5.30;99.90;;;;;;5052320;28;20060;-73
2022/11/26 01:07:09;;;;;;;12.25;2.83;;;5.40;99.90;;;;;;5031698;28;20510;-74
2022/11/26 01:09:35;;;;;;;14.45;3.60;;;5.40;99.90;;;;;;5051444;28;20083;-74
2022/11/26 01:12:00;;;;;;;15.60;4.50;;;5.50;99.90;;;;;;5048333;28;20029;-74
2022/11/26 01:14:26;;;;;;;13.15;4.47;;;5.40;99.90;;;;;;5027853;28;20029;-74
2022/11/26 01:16:55;;;;;;;11.32;4.43;;;5.40;99.90;;;;;;5051081;28;20033;-74
2022/11/26 01:22:20;;;;;;;14.63;4.50;;;5.50;99.90;;;;;;5006480;28;20095;-73
2022/11/26 01:24:47;;;;;;;12.57;4.53;;;5.50;99.90;;;;;;5012464;28;20034;-74
2022/11/26 01:27:12;;;;;;;12.70;3.92;;;5.60;99.90;;;;;;5010278;28;20026;-73
2022/11/26 01:29:38;;;;;;;9.55;3.67;;;5.50;99.90;;;;;;5011792;28;20034;-74
2022/11/26 01:32:04;;;;;;;14.73;4.75;;;5.60;99.90;;;;;;5011885;28;20104;-74
2022/11/26 01:34:29;;;;;;;11.88;3.88;;;5.60;99.90;;;;;;5012040;28;20022;-73
2022/11/26 01:36:55;;;;;;;9.95;3.47;;;5.60;99.90;;;;;;5008864;28;20434;-74
2022/11/26 01:39:22;;;;;;;12.50;3.50;;;5.70;99.90;;;;;;5011192;28;20025;-73
2022/11/26 01:42:05;;;;;;;6.70;2.38;;;5.70;99.90;;;;;;5011872;28;20053;-74
2022/11/26 01:44:34;;;;;;;9.20;2.78;;;5.70;99.90;;;;;;5011169;28;20391;-74
2022/11/26 01:47:01;;;;;;;9.90;2.50;;;5.80;99.90;;;;;;5009881;28;20060;-74
2022/11/26 01:49:33;;;;;;;10.70;2.65;;;5.80;99.90;;;;;;5011567;28;20033;-74
2022/11/26 01:52:20;;;;;;;10.70;3.63;;;5.80;99.90;;;;;;5010154;28;20121;-74
2022/11/26 01:54:47;;;;;;;8.25;3.30;;;5.80;99.90;;;;;;5012371;28;20030;-73
2022/11/26 01:57:14;;;;;;;9.65;3.13;;;5.80;99.90;;;;;;5009326;28;20026;-72
2022/11/26 01:59:43;;;;;;;13.88;3.22;;;5.80;99.90;;;;;;5013495;28;20089;-74
2022/11/26 02:02:09;;;;;;;8.90;3.22;;;5.80;99.90;;;;;;5011951;28;20068;-74
2022/11/26 02:04:53;;;;;;;10.63;2.97;;;5.80;99.90;;;;;;5007835;28;20228;-74
2022/11/26 02:07:18;;;;;;;10.05;2.50;;;5.90;99.90;;;;;;5010375;28;20110;-73
2022/11/26 02:09:45;;;;;;;19.23;5.78;;;5.90;99.90;;;;;;5009838;28;20033;-74
2022/11/26 02:12:11;;;;;;;16.05;5.18;;;6.00;99.90;;;;;;5010528;28;20033;-74
2022/11/26 02:14:42;;;;;;;17.42;5.78;;;6.00;99.90;;;;;;5010010;28;20029;-73
2022/11/26 02:17:30;;;;;;;14.40;5.25;;;6.00;99.90;;;;;;5011196;28;20054;-73
2022/11/26 02:20:25;;;;;;;14.23;5.07;;;6.00;99.90;;;;;;5010822;28;20144;-73
2022/11/26 02:23:31;;;;;;;11.98;4.75;;;5.90;99.90;;;;;;4943692;28;20109;-74
2022/11/26 02:25:56;;;;;;;15.02;5.47;;;5.90;99.90;;;;;;5026405;28;20034;-74
2022/11/26 02:28:49;;;;;;;14.30;5.55;;;5.80;99.90;;;;;;5024756;28;20109;-74
2022/11/26 02:31:36;;;;;;;16.85;6.03;;;5.80;99.90;;;;;;5027227;28;20048;-74
2022/11/26 02:34:43;;;;;;;13.07;5.20;;;5.80;99.90;;;;;;5031684;28;20378;-75
2022/11/26 02:37:24;;;;;;;13.73;5.35;;;5.80;99.90;;;;;;5025850;28;20370;-74
2022/11/26 02:39:50;;;;;;;13.68;5.43;;;5.70;99.90;;;;;;5031530;28;20048;-74
2022/11/26 02:42:28;;;;;;;12.45;5.20;;;5.70;99.90;;;;;;5030152;28;20076;-73
2022/11/26 02:45:04;;;;;;;17.58;4.93;;;5.70;99.90;;;;;;5025453;28;20044;-74
2022/11/26 02:47:32;;;;;;;14.52;3.85;;;5.70;99.90;;;;;;5027450;28;20053;-75
2022/11/26 02:50:03;;;;;;;11.60;4.40;;;5.70;99.90;;;;;;5031047;28;20168;-74
2022/11/26 02:52:31;;;;;;;11.45;3.53;;;5.70;99.90;;;;;;5029971;28;20029;-74
2022/11/26 02:54:58;;;;;;;11.05;3.25;;;5.80;99.90;;;;;;5030093;28;20030;-74
2022/11/26 02:57:28;;;;;;;13.23;4.20;;;5.80;99.90;;;;;;5028643;28;20041;-74
2022/11/26 02:59:54;;;;;;;6.07;2.60;;;5.70;99.90;;;;;;5027905;28;20415;-76
2022/11/26 03:02:30;;;;;;;10.00;2.85;;;5.80;99.90;;;;;;5030383;28;20044;-74
2022/11/26 03:04:59;;;;;;;9.45;2.83;;;5.70;99.90;;;;;;5029684;28;20067;-75
2022/11/26 03:07:27;;;;;;;10.38;2.80;;;5.70;99.90;;;;;;5028954;28;20029;-75
2022/11/26 03:09:56;;;;;;;10.57;2.65;;;5.80;99.90;;;;;;5030917;28;20095;-74
2022/11/26 03:12:22;;;;;;;10.30;3.25;;;5.80;99.90;;;;;;5029214;28;20083;-74
2022/11/26 03:14:48;;;;;;;8.05;2.63;;;5.80;99.90;;;;;;5028175;28;20060;-75
2022/11/26 03:17:14;;;;;;;9.27;3.10;;;5.80;99.90;;;;;;5029617;28;20060;-73
2022/11/26 03:19:39;;;;;;;12.07;3.25;;;5.80;99.90;;;;;;5028905;28;20026;-74
2022/11/26 03:22:06;;;;;;;5.82;2.35;;;5.90;99.90;;;;;;5037737;28;20486;-74
2022/11/26 03:24:31;;;;;;;11.50;2.95;;;5.90;99.90;;;;;;5048799;28;20025;-74
2022/11/26 03:26:58;;;;;;;11.38;3.00;;;5.90;99.90;;;;;;5047415;28;20033;-74
2022/11/26 03:29:24;;;;;;;17.67;3.35;;;5.90;99.90;;;;;;5048170;28;20083;-74
2022/11/26 03:31:49;;;;;;;8.90;2.47;;;6.00;99.90;;;;;;5049835;28;20033;-74
2022/11/26 03:34:15;;;;;;;11.63;3.22;;;6.00;99.90;;;;;;5050132;28;20381;-74
2022/11/26 03:36:40;;;;;;;16.67;4.03;;;6.00;99.90;;;;;;5048828;28;20473;-74
2022/11/26 03:39:06;;;;;;;12.05;5.18;;;6.00;99.90;;;;;;5049798;28;20025;-73
2022/11/26 03:41:32;;;;;;;19.17;5.75;;;5.90;99.90;;;;;;5049316;28;20040;-74
2022/11/26 03:43:57;;;;;;;14.60;5.60;;;5.90;99.90;;;;;;5050238;28;20025;-75
2022/11/26 03:46:23;;;;;;;14.88;6.50;;;5.80;99.90;;;;;;5048050;28;20107;-74
2022/11/26 03:48:49;;;;;;;15.45;6.43;;;5.80;99.90;;;;;;5050205;28;20025;-74
2022/11/26 03:51:14;;;;;;;12.40;6.22;;;5.70;99.90;;;;;;5030919;28;20389;-73
2022/11/26 03:53:40;;;;;;;11.30;5.85;;;5.70;99.90;;;;;;5050050;28;20174;-75
2022/11/26 03:56:06;;;;;;;12.18;6.10;;;5.60;99.90;;;;;;5049085;28;20079;-75
2022/11/26 03:58:33;;;;;;;15.10;6.47;;;5.60;99.90;;;;;;5049661;28;20132;-74
2022/11/26 04:00:58;;;;;;;17.75;6.55;;;5.50;99.90;;;;;;5053515;28;20037;-74
2022/11/26 04:03:24;;;;;;;18.52;7.47;;;5.40;99.90;;;;;;5053789;28;20484;-74
2022/11/26 04:05:50;;;;;;;17.83;7.40;;;5.40;99.90;;;;;;5045960;28;20040;-74
2022/11/26 04:08:15;;;;;;;22.38;5.80;;;5.40;99.90;;;;;;5053624;28;20539;-73
2022/11/26 04:10:41;;;;;;;13.68;4.78;;;5.40;99.90;;;;;;5053147;28;20087;-74
2022/11/26 04:13:06;;;;;;;16.05;4.20;;;5.40;99.90;;;;;;5054172;28;20056;-73
2022/11/26 04:15:33;;;;;;;17.23;4.20;;;5.50;99.90;;;;;;5048056;28;20619;-74
2022/11/26 04:17:58;;;;;;;12.95;4.10;;;5.50;99.90;;;;;;5053195;28;20025;-75
2022/11/26 04:20:24;;;;;;;24.05;5.30;;;5.50;99.90;;;;;;5052879;28;20382;-75
2022/11/26 04:22:50;;;;;;;17.63;4.47;;;5.50;99.90;;;;;;5053171;28;20041;-75
2022/11/26 04:25:15;;;;;;;13.75;4.38;;;5.50;99.90;;;;;;5052402;28;20035;-74
2022/11/26 04:27:41;;;;;;;15.57;4.97;;;5.50;99.90;;;;;;5053228;28;20086;-74
2022/11/26 04:30:07;;;;;;;20.42;5.53;;;5.50;99.90;;;;;;5053393;28;20041;-74
2022/11/26 04:32:33;;;;;;;14.52;4.63;;;5.50;99.90;;;;;;5048575;28;20035;-73
2022/11/26 04:34:59;;;;;;;16.27;4.45;;;5.50;99.90;;;;;;5052644;28;20111;-74
2022/11/26 04:37:24;;;;;;;13.18;3.97;;;5.50;99.90;;;;;;5048180;28;20036;-73
2022/11/26 04:39:50;;;;;;;9.20;3.67;;;5.50;99.90;;;;;;5053774;28;20025;-75
2022/11/26 04:42:15;;;;;;;12.05;4.10;;;5.50;99.90;;;;;;5052026;28;20029;-74
2022/11/26 04:44:41;;;;;;;13.30;4.65;;;5.50;99.90;;;;;;5053748;28;20033;-74
2022/11/26 04:47:07;;;;;;;17.05;4.70;;;5.50;99.90;;;;;;5048836;28;20029;-75
2022/11/26 04:49:32;;;;;;;25.83;4.88;;;5.50;99.90;;;;;;5053037;28;20108;-80
2022/11/26 04:51:58;;;;;;;17.33;4.13;;;5.50;99.90;;;;;;5048624;28;20517;-76
2022/11/26 04:54:23;;;;;;;20.20;4.85;;;5.60;99.90;;;;;;5050773;28;20105;-74
2022/11/26 04:56:49;;;;;;;14.15;4.60;;;5.60;99.90;;;;;;5047711;28;20110;-77
2022/11/26 04:59:15;;;;;;;11.75;4.40;;;5.60;99.90;;;;;;5053060;28;20037;-74
2022/11/26 05:01:40;;;;;;;17.70;5.38;;;5.60;99.90;;;;;;5052566;28;20056;-77
2022/11/26 05:04:06;;;;;;;14.32;4.82;;;5.50;99.90;;;;;;5053009;28;20098;-74
2022/11/26 05:06:32;;;;;;;11.23;4.13;;;5.50;99.90;;;;;;5049846;28;20028;-74
2022/11/26 05:08:58;;;;;;;15.82;5.22;;;5.40;99.90;;;;;;5051772;28;20124;-76
2022/11/26 05:11:24;;;;;;;17.30;4.90;;;5.30;99.90;;;;;;5047410;28;20060;-74
2022/11/26 05:13:50;;;;;;;15.25;4.40;;;5.30;99.90;;;;;;5048159;28;20061;-75
2022/11/26 05:16:15;;;;;;;11.45;4.35;;;5.10;99.90;;;;;;5047644;28;20437;-73
2022/11/26 05:18:41;;;;;;;12.77;4.43;;;5.10;99.90;;;;;;5048506;28;20079;-75
2022/11/26 05:21:07;;;;;;;24.30;7.13;;;4.90;99.90;;;;;;5046906;28;20560;-73
2022/11/26 05:23:32;;;;;;;25.08;6.47;;;4.90;99.90;;;;;;5041096;28;20047;-75
2022/11/26 05:25:58;;;;;;;21.35;6.63;;;4.80;99.90;;;;;;5043250;28;20032;-73
2022/11/26 05:28:23;;;;;;;20.25;5.53;;;4.80;99.90;;;;;;5044245;28;20090;-75
2022/11/26 05:30:49;;;;;;;22.02;5.72;;;4.80;99.90;;;;;;5046992;28;20040;-76
2022/11/26 05:33:15;;;;;;;17.55;5.88;;;4.80;99.90;;;;;;5046571;28;20021;-74
2022/11/26 05:35:40;;;;;;;22.02;5.70;;;4.70;99.90;;;;;;5045914;28;20343;-75
2022/11/26 05:38:06;;;;;;;16.63;6.90;;;4.60;99.90;;;;;;5047883;28;20052;-75
2022/11/26 05:40:31;;;;;;;29.70;7.97;;;4.60;99.90;;;;;;5042700;28;20222;-75
2022/11/26 05:42:57;;;;;;;19.13;6.75;;;4.60;99.90;;;;;;5056140;28;20059;-74
2022/11/26 05:45:23;;;;;;;22.50;6.70;;;4.50;99.90;;;;;;5058613;28;20032;-74
2022/11/26 05:47:48;;;;;;;20.80;6.25;;;4.50;99.90;;;;;;5065798;28;20040;-75
2022/11/26 05:50:14;;;;;;;16.65;5.30;;;4.40;99.90;;;;;;5055762;28;20047;-74
2022/11/26 05:52:40;;;;;;;16.08;5.82;;;4.30;99.90;;;;;;5045637;28;20033;-74
2022/11/26 05:55:06;;;;;;;15.88;6.15;;;4.10;99.90;;;;;;5045448;28;20108;-74
2022/11/26 05:57:31;;;;;;;13.95;6.13;;;4.00;99.90;;;;;;5039215;28;20068;-74
2022/11/26 05:59:57;;;;;;;14.90;6.40;;;3.90;99.90;;;;;;5044560;28;20068;-74
2022/11/26 06:02:22;;;;;;;12.48;5.82;;;3.90;99.90;;;;;;5042931;28;20036;-74
2022/11/26 06:04:48;;;;;;;12.98;6.10;;;3.80;99.90;;;;;;5041456;28;20110;-74
2022/11/26 06:07:14;;;;;;;15.02;7.07;;;3.70;99.90;;;;;;5043423;28;20420;-74
2022/11/26 06:09:39;;;;;;;21.73;8.07;;;3.70;99.90;;;;;;5042208;28;20040;-74
2022/11/26 06:12:05;;;;;;;21.40;7.45;;;3.60;99.90;;;;;;5044078;28;20046;-75
2022/11/26 06:14:31;;;;;;;23.55;8.20;;;3.60;99.90;;;;;;5045499;28;20039;-75
2022/11/26 06:16:56;;;;;;;32.95;9.93;;;3.50;99.90;;;;;;5043882;28;20040;-74
2022/11/26 06:19:22;;;;;;;29.45;8.85;;;3.50;99.90;;;;;;5041753;28;20036;-75
2022/11/26 06:21:47;;;;;;;30.23;9.50;;;3.60;99.90;;;;;;5042294;28;20103;-74
2022/11/26 06:24:13;;;;;;;22.42;9.40;;;3.70;99.90;;;;;;5046496;28;20028;-74
2022/11/26 06:26:39;;;;;;;26.95;7.53;;;3.70;99.90;;;;;;5043647;28;20458;-74
2022/11/26 06:29:05;;;;;;;23.40;8.05;;;3.70;99.90;;;;;;5048123;28;20017;-74
2022/11/26 06:31:31;;;;;;;12.65;6.72;;;3.60;99.90;;;;;;5045633;28;20033;-74
2022/11/26 06:33:58;;;;;;;17.55;6.85;;;3.60;99.90;;;;;;5049142;28;20662;-74
2022/11/26 06:36:24;;;;;;;19.58;7.63;;;3.50;99.90;;;;;;5045199;28;20024;-74
2022/11/26 06:38:49;;;;;;;30.65;8.90;;;3.50;99.90;;;;;;5048569;28;20032;-74
2022/11/26 06:41:15;;;;;;;34.17;9.15;;;3.40;99.90;;;;;;5044741;28;20466;-73
2022/11/26 06:43:41;;;;;;;29.73;10.63;;;3.50;99.90;;;;;;5046557;28;20025;-74
2022/11/26 06:46:09;;;;;;;27.88;10.10;;;3.60;99.90;;;;;;5046224;28;20508;-74
2022/11/26 06:48:36;;;;;;;33.25;8.90;;;3.60;99.90;;;;;;5045018;28;20025;-74
2022/11/26 06:51:05;;;;;;;30.35;9.63;;;3.60;99.90;;;;;;5043735;28;20855;-73
2022/11/26 06:53:31;;;;;;;28.25;9.80;;;3.70;99.90;;;;;;5045425;28;20477;-73
2022/11/26 06:56:06;;;;;;;26.40;8.73;;;3.60;99.90;;;;;;5042335;28;20056;-74
2022/11/26 06:58:32;;;;;;;25.58;9.05;;;3.60;99.90;;;;;;5041496;28;20029;-73
2022/11/26 07:00:58;;;;;;;35.58;9.68;;;3.60;99.90;;;;;;5041603;28;20417;-73
2022/11/26 07:03:24;;;;;;;30.52;9.65;;;3.60;99.90;;;;;;5042930;28;20039;-73
2022/11/26 07:05:50;;;;;;;25.17;9.55;;;3.60;99.90;;;;;;5048272;28;20032;-73
2022/11/26 07:08:16;;;;;;;27.73;9.32;;;3.50;99.90;;;;;;5048411;28;20040;-72
2022/11/26 07:10:42;;;;;;;22.42;9.65;;;3.50;99.90;;;;;;5047596;28;20086;-74
2022/11/26 07:13:07;;;;;;;30.67;10.23;;;3.50;99.90;;;;;;5043947;28;20033;-74
2022/11/26 07:15:33;;;;;;;30.10;10.43;;;3.50;99.90;;;;;;5046590;28;20484;-74
2022/11/26 07:17:58;;;;;;;33.17;11.95;;;3.50;99.90;;;;;;5044760;28;20359;-76
2022/11/26 07:20:25;;;;;;;36.78;12.57;;;3.50;99.90;;;;;;5048583;28;20033;-75
2022/11/26 07:22:52;;;;;;;31.30;12.25;;;3.60;99.90;;;;;;5049909;28;20108;-73
2022/11/26 07:25:18;;;;;;;31.65;12.57;;;3.70;99.90;;;;;;5045791;28;20428;-74
2022/11/26 07:27:44;;;;;;;21.60;10.50;;;3.70;99.90;;;;;;5047050;28;20029;-76
2022/11/26 07:30:11;;;;;;;20.75;10.50;;;3.70;99.90;;;;;;5049175;28;20557;-74
2022/11/26 07:32:37;;;;;;;23.98;9.88;;;3.80;99.90;;;;;;5048339;28;20504;-74
2022/11/26 07:35:03;;;;;;;22.05;10.77;;;3.80;99.90;;;;;;5050409;28;20115;-74
2022/11/26 07:37:29;;;;;;;18.40;9.73;;;3.80;99.90;;;;;;5052150;28;20040;-76
2022/11/26 07:39:54;;;;;;;22.92;10.60;;;3.90;99.90;;;;;;5044261;28;20385;-77
2022/11/26 07:42:20;;;;;;;22.13;10.48;;;4.00;99.90;;;;;;5050051;28;20024;-74
2022/11/26 07:44:45;;;;;;;22.38;11.05;;;4.10;99.90;;;;;;5049882;28;20092;-80
2022/11/26 07:47:11;;;;;;;25.08;13.40;;;4.10;99.90;;;;;;5052825;28;20384;-76
2022/11/26 07:49:37;;;;;;;35.67;12.98;;;4.30;99.90;;;;;;5048406;28;20028;-75
2022/11/26 07:52:03;;;;;;;40.60;17.05;;;4.40;99.90;;;;;;5050858;28;20387;-75
2022/11/26 07:54:28;;;;;;;31.63;16.27;;;4.50;99.90;;;;;;5049870;28;20017;-74
2022/11/26 07:56:54;;;;;;;36.97;15.88;;;4.60;99.90;;;;;;5053239;28;20125;-75
2022/11/26 07:59:20;;;;;;;41.15;17.65;;;4.60;99.90;;;;;;5051509;28;20029;-73
2022/11/26 08:01:45;;;;;;;31.65;17.17;;;4.70;99.90;;;;;;5048972;28;20029;-79
2022/11/26 08:04:11;;;;;;;40.22;17.77;;;4.80;99.90;;;;;;5045644;28;20425;-75
2022/11/26 08:06:37;;;;;;;30.13;14.90;;;4.90;99.90;;;;;;5047631;28;20096;-75
2022/11/26 08:09:03;;;;;;;24.88;13.82;;;4.90;99.90;;;;;;5052101;28;20020;-77
2022/11/26 08:11:30;;;;;;;31.02;12.48;;;5.00;99.90;;;;;;5040650;28;20083;-75
2022/11/26 08:13:57;;;;;;;30.40;13.63;;;5.00;99.90;;;;;;5051229;28;20033;-76
2022/11/26 08:16:23;;;;;;;28.90;13.88;;;5.00;99.90;;;;;;5052187;28;20036;-78
2022/11/26 08:18:56;;;;;;;32.17;12.95;;;5.00;99.90;;;;;;5053399;28;20029;-75
2022/11/26 08:21:22;;;;;;;32.75;13.55;;;5.10;99.90;;;;;;5050263;28;20040;-77
2022/11/26 08:23:48;;;;;;;29.15;13.30;;;5.10;99.90;;;;;;5047537;28;20104;-75
2022/11/26 08:26:14;;;;;;;29.63;13.82;;;5.20;99.90;;;;;;5051897;28;20111;-77
2022/11/26 08:28:45;;;;;;;31.17;14.25;;;5.20;99.90;;;;;;5053706;28;20025;-78
2022/11/26 08:31:12;;;;;;;27.95;12.88;;;5.30;99.90;;;;;;5043291;28;20474;-79
2022/11/26 08:33:38;;;;;;;26.77;12.07;;;5.30;99.90;;;;;;5052155;28;20045;-76
2022/11/26 08:36:05;;;;;;;27.48;12.85;;;5.40;99.90;;;;;;5034581;28;20075;-79
2022/11/26 08:38:30;;;;;;;29.40;12.93;;;5.40;99.90;;;;;;5052392;28;20032;-76
2022/11/26 08:41:10;;;;;;;24.38;11.50;;;5.50;99.90;;;;;;5032910;28;20029;-76
2022/11/26 08:43:37;;;;;;;24.60;12.35;;;5.50;99.90;;;;;;5048148;28;20638;-75
2022/11/26 08:46:03;;;;;;;24.92;11.18;;;5.50;99.90;;;;;;5044722;28;20067;-76
2022/11/26 08:48:30;;;;;;;25.13;12.80;;;5.60;99.90;;;;;;5052335;28;20524;-77
2022/11/26 08:50:57;;;;;;;29.83;11.32;;;5.60;99.90;;;;;;5047931;28;20131;-82
2022/11/26 08:53:23;;;;;;;33.20;13.20;;;5.60;99.90;;;;;;5051574;28;20028;-78
2022/11/26 08:55:48;;;;;;;18.75;9.05;;;5.60;99.90;;;;;;5047439;28;20033;-75
2022/11/26 08:58:14;;;;;;;14.80;8.57;;;5.60;99.90;;;;;;5050734;28;20485;-73
2022/11/26 09:00:40;;;;;;;18.83;9.27;;;5.60;99.90;;;;;;5046142;28;20219;-82
2022/11/26 09:03:06;;;;;;;19.33;9.35;;;5.60;99.90;;;;;;5056565;28;20390;-74
2022/11/26 09:05:32;;;;;;;21.20;9.98;;;5.50;99.90;;;;;;5033298;28;20033;-79
2022/11/26 09:07:57;;;;;;;18.35;9.80;;;5.40;99.90;;;;;;5047336;28;20025;-83
2022/11/26 09:10:24;;;;;;;20.98;10.05;;;5.40;99.90;;;;;;5045014;28;20033;-81
2022/11/26 09:12:50;;;;;;;22.15;10.88;;;5.30;99.90;;;;;;5054496;28;20037;-75
2022/11/26 09:15:15;;;;;;;21.60;10.23;;;5.20;99.90;;;;;;5042888;28;20027;-74
2022/11/26 09:17:41;;;;;;;17.77;11.45;;;5.20;99.90;;;;;;5049597;28;20470;-75
2022/11/26 09:20:07;;;;;;;25.80;12.65;;;5.20;99.90;;;;;;5033538;28;20031;-76
2022/11/26 09:22:34;;;;;;;22.70;12.75;;;5.20;99.90;;;;;;5050533;28;20041;-84
2022/11/26 09:25:00;;;;;;;22.63;12.05;;;5.30;99.90;;;;;;5046769;28;20029;-81
2022/11/26 09:27:25;;;;;;;24.15;12.25;;;5.40;99.90;;;;;;5051123;28;20052;-83
2022/11/26 09:29:51;;;;;;;23.67;12.57;;;5.50;99.90;;;;;;5050480;28;20031;-75
2022/11/26 09:32:16;;;;;;;25.38;14.02;;;5.50;99.90;;;;;;5045345;28;20041;-74
2022/11/26 09:34:42;;;;;;;27.35;13.55;;;5.70;99.90;;;;;;5050658;28;20104;-79
2022/11/26 09:37:08;;;;;;;24.42;12.82;;;5.70;99.90;;;;;;5051499;28;20397;-77
2022/11/26 09:39:34;;;;;;;23.38;11.48;;;5.80;99.90;;;;;;5048741;28;20073;-75
2022/11/26 09:42:11;;;;;;;18.67;10.27;;;5.90;99.90;;;;;;5051405;28;20119;-80
2022/11/26 09:45:08;;;;;;;20.27;10.85;;;6.00;99.90;;;;;;5048874;28;20793;-77
2022/11/26 09:47:39;;;;;;;20.17;9.30;;;6.00;99.90;;;;;;5048902;28;20629;-78
2022/11/26 09:50:05;;;;;;;17.70;9.68;;;6.00;99.90;;;;;;5031063;28;20482;-75
2022/11/26 09:52:55;;;;;;;23.13;9.38;;;6.00;99.90;;;;;;5049856;28;20052;-77
2022/11/26 09:55:26;;;;;;;12.98;6.80;;;5.90;99.90;;;;;;5049840;28;20029;-74
2022/11/26 09:58:20;;;;;;;13.23;7.43;;;5.90;99.90;;;;;;5050431;28;20037;-72
2022/11/26 10:00:48;;;;;;;16.20;8.23;;;5.90;99.90;;;;;;5044194;28;20036;-76
2022/11/26 10:03:18;;;;;;;18.17;8.27;;;5.90;99.90;;;;;;5051011;28;20025;-74
2022/11/26 10:06:00;;;;;;;;;;;5.90;99.90;;;;;;5049195;28;20037;-76
2022/11/26 10:08:53;;;;;;;21.48;9.82;;;5.90;99.90;;;;;;5046565;28;20376;-75
2022/11/26 10:11:30;;;;;;;21.45;8.13;;;6.00;99.90;;;;;;5049203;28;20029;-81
2022/11/26 10:14:02;;;;;;;21.95;7.63;;;6.10;99.90;;;;;;5050313;28;20028;-82
2022/11/26 10:16:50;;;;;;;28.20;9.02;;;6.20;99.90;;;;;;5044571;28;20028;-79
2022/11/26 10:19:33;;;;;;;21.08;10.32;;;6.30;99.90;;;;;;5048011;28;20047;-79
2022/11/26 10:22:04;;;;;;;17.83;9.35;;;6.40;99.90;;;;;;5048057;28;20048;-81
2022/11/26 10:24:40;;;;;;;25.25;11.05;;;6.50;99.90;;;;;;5030306;28;20021;-80
2022/11/26 10:27:14;;;;;;;29.30;10.73;;;6.60;99.90;;;;;;5029535;28;20506;-85
2022/11/26 10:29:42;;;;;;;21.65;11.10;;;6.80;99.90;;;;;;5046601;28;20037;-89
2022/11/26 10:32:26;;;;;;;20.95;10.98;;;6.90;99.90;;;;;;5049434;28;20040;-76
2022/11/26 10:34:56;;;;;;;19.40;10.52;;;7.00;99.90;;;;;;5043491;28;20378;-75
2022/11/26 10:37:24;;;;;;;18.50;8.75;;;7.10;99.90;;;;;;5048654;28;20104;-77
2022/11/26 10:40:25;;;;;;;20.27;8.75;;;7.20;99.90;;;;;;5046334;28;20028;-76
2022/11/26 10:43:08;;;;;;;16.75;6.63;;;7.30;99.90;;;;;;5044140;28;20032;-75
2022/11/26 10:45:46;;;;;;;13.55;6.78;;;7.40;99.90;;;;;;5047259;28;20035;-74
2022/11/26 10:48:24;;;;;;;20.35;7.15;;;7.30;99.90;;;;;;5033102;28;20025;-78
2022/11/26 10:51:05;;;;;;;16.75;7.57;;;7.40;99.90;;;;;;5047988;28;20037;-73
2022/11/26 10:53:47;;;;;;;18.40;7.63;;;7.30;99.90;;;;;;5048735;28;20025;-79
2022/11/26 10:56:18;;;;;;;22.38;8.73;;;7.20;99.90;;;;;;5046924;28;20029;-76
2022/11/26 10:58:46;;;;;;;20.77;7.53;;;7.10;99.90;;;;;;5051156;28;20071;-75
2022/11/26 11:01:14;;;;;;;20.38;8.50;;;7.10;99.90;;;;;;5044777;28;20037;-77
2022/11/26 11:03:52;;;;;;;17.70;8.48;;;7.10;99.90;;;;;;5048636;28;20071;-77
2022/11/26 11:06:18;;;;;;;15.90;7.65;;;7.10;99.90;;;;;;5049626;28;20029;-73
2022/11/26 11:08:45;;;;;;;14.30;7.25;;;7.20;99.90;;;;;;5042963;28;20516;-78
2022/11/26 11:11:31;;;;;;;18.92;8.13;;;7.40;99.90;;;;;;5049773;28;20086;-73
2022/11/26 11:13:57;;;;;;;16.85;8.00;;;7.60;99.90;;;;;;5049978;28;20033;-75
2022/11/26 11:16:27;;;;;;;12.52;8.88;;;7.70;99.90;;;;;;5046652;28;20051;-77
2022/11/26 11:18:59;;;;;;;18.70;8.15;;;7.70;99.90;;;;;;5051289;28;20021;-73
2022/11/26 11:21:34;;;;;;;15.30;7.95;;;7.70;99.90;;;;;;5047739;28;20035;-73
2022/11/26 11:24:16;;;;;;;15.70;7.28;;;7.70;99.90;;;;;;5030517;28;20042;-78
2022/11/26 11:26:44;;;;;;;18.80;8.48;;;7.60;99.90;;;;;;5031252;28;20030;-75
2022/11/26 11:29:42;;;;;;;15.93;7.32;;;7.60;99.90;;;;;;5031525;28;20126;-73
2022/11/26 11:32:33;;;;;;;19.58;7.97;;;7.50;99.90;;;;;;4979883;28;20042;-74
2022/11/26 11:35:22;;;;;;;16.08;8.50;;;7.50;99.90;;;;;;5029909;28;20029;-76
2022/11/26 11:37:51;;;;;;;16.38;8.68;;;7.40;99.90;;;;;;5031379;28;20032;-75
2022/11/26 11:40:22;;;;;;;18.35;8.38;;;7.30;99.90;;;;;;5030536;28;20045;-73
2022/11/26 11:42:53;;;;;;;19.27;9.60;;;7.30;99.90;;;;;;5029299;28;20021;-76
2022/11/26 11:45:31;;;;;;;15.50;8.05;;;7.20;99.90;;;;;;5030042;28;20033;-74
2022/11/26 11:48:10;;;;;;;13.95;8.23;;;7.20;99.90;;;;;;5028642;28;20033;-77
2022/11/26 11:50:53;;;;;;;18.53;8.80;;;7.10;99.90;;;;;;5025663;28;20694;-77
2022/11/26 11:53:21;;;;;;;16.80;9.23;;;7.10;99.90;;;;;;5029385;28;20044;-78
2022/11/26 11:56:22;;;;;;;16.25;8.07;;;7.20;99.90;;;;;;5030908;28;20037;-80
2022/11/26 11:59:12;;;;;;;16.15;7.97;;;7.10;99.90;;;;;;5003877;28;20084;-78
2022/11/26 12:02:03;;;;;;;;;;;7.10;99.90;;;;;;5030434;28;20475;-77
2022/11/26 12:04:51;;;;;;;19.02;6.88;;;7.20;99.90;;;;;;5018554;28;19910;-76
2022/11/26 12:07:33;;;;;;;20.48;7.13;;;7.20;99.90;;;;;;5030382;28;20025;-75
2022/11/26 12:10:11;;;;;;;12.02;6.80;;;7.20;99.90;;;;;;5031135;28;20405;-78
2022/11/26 12:12:51;;;;;;;15.05;6.20;;;7.30;99.90;;;;;;5029986;28;20037;-77
2022/11/26 12:15:27;;;;;;;14.25;6.63;;;7.30;99.90;;;;;;5030662;28;20021;-74
2022/11/26 12:17:57;;;;;;;14.95;6.63;;;7.30;99.90;;;;;;5013072;28;20026;-80
2022/11/26 12:20:30;;;;;;;15.95;6.60;;;7.30;99.90;;;;;;5017088;28;20033;-77
2022/11/26 12:23:31;;;;;;;15.88;7.13;;;7.30;99.90;;;;;;5027267;28;20473;-78
2022/11/26 12:26:15;;;;;;;11.07;5.63;;;7.40;99.90;;;;;;4991915;28;20176;-78
2022/11/26 12:28:59;;;;;;;12.65;5.90;;;7.40;99.90;;;;;;5023545;28;20040;-75
2022/11/26 12:31:33;;;;;;;14.32;7.18;;;7.30;99.90;;;;;;5033519;28;20115;-77
2022/11/26 12:34:20;;;;;;;13.60;7.93;;;7.30;99.90;;;;;;5026291;28;20466;-76
2022/11/26 12:36:59;;;;;;;15.70;7.97;;;7.30;99.90;;;;;;5028993;28;20397;-79
2022/11/26 12:39:43;;;;;;;14.60;7.32;;;7.30;99.90;;;;;;5027214;28;20037;-77
2022/11/26 12:42:53;;;;;;;13.88;7.25;;;7.30;99.90;;;;;;5029849;28;20040;-78
2022/11/26 12:45:22;;;;;;;18.63;8.60;;;7.20;99.90;;;;;;4935034;29;20027;-74
2022/11/26 12:47:58;;;;;;;21.20;9.25;;;7.20;99.90;;;;;;4953283;28;20045;-77
2022/11/26 12:50:43;;;;;;;19.23;8.02;;;7.20;99.90;;;;;;4998444;28;20053;-76
2022/11/26 12:53:20;;;;;;;18.08;8.02;;;7.20;99.90;;;;;;5033908;28;20029;-81
2022/11/26 12:56:11;;;;;;;18.65;7.88;;;7.20;99.90;;;;;;5026253;28;20068;-80
2022/11/26 12:58:39;;;;;;;15.80;6.72;;;7.10;99.90;;;;;;5023456;28;20025;-81
2022/11/26 13:01:08;;;;;;;17.67;6.15;;;7.10;99.90;;;;;;5024572;28;20037;-80
2022/11/26 13:03:33;;;;;;;18.83;6.60;;;7.00;99.90;;;;;;5023954;28;20100;-77
2022/11/26 13:06:33;;;;;;;19.42;6.03;;;7.10;99.90;;;;;;5006443;28;20037;-80